No.10 Hasshomaru — JD2992 — position and weather

sailwx.info

Track history (hours):
 
Tides and Currents Weather Stations Pressure Air Temp Water Temp Dewpoint Dewpoint Depression Visibility Wind Speed Wind Dir Waves Ship Positions

No.10 Hasshomaru

Last reported at 2014-Oct-29 14:32 UTC. Time now 2014-Nov-01 09:51 UTC.
Position N 33°56' E 134°60'.

Length 105 m; draft 6.4 m.

Type: Tanker. MMSI: 431001112.

Date/timePositionNaut miles runAvg speedWind from/ knotsBaromVisibWave heightAir tempDewpointWater temp
2014-Oct-29 14:32N 33°56' E 134°60'1414.0
2014-Oct-29 13:33N 34°10' E 134°59'1413.7
2014-Oct-29 12:33N 34°24' E 135°00'1312.7
2014-Oct-29 11:33N 34°37' E 135°02'9 0.4
2014-Oct-28 11:27N 34°34' E 134°51'1112.2
2014-Oct-28 10:33N 34°36' E 135°04'1414.3
2014-Oct-28 09:33N 34°33' E 135°21'3 0.3
2014-Oct-27 23:23N 34°32' E 135°25'4 4.8
2014-Oct-27 22:33N 34°33' E 135°20'2 2.2
2014-Oct-27 21:30N 34°32' E 135°18'0 0.0
2014-Oct-27 20:30N 34°32' E 135°18'0 0.0
2014-Oct-27 19:30N 34°32' E 135°18'0 0.0
2014-Oct-27 18:18N 34°32' E 135°18'0 0.0
2014-Oct-27 17:24N 34°32' E 135°18'0 0.0
2014-Oct-27 16:30N 34°32' E 135°18'7 7.5
2014-Oct-27 15:33N 34°34' E 135°09'1312.4
2014-Oct-27 14:33N 34°35' E 134°54'  
2014-Oct-20 02:06N 33°57' E 132°41'  
Track history (hours):
 
Tides and Currents Weather Stations Pressure Air Temp Water Temp Dewpoint Dewpoint Depression Visibility Wind Speed Wind Dir Waves Ship Positions

No.10 Hasshomaru

Last reported at 2014-Oct-29 14:32 UTC. Time now 2014-Nov-01 09:51 UTC.
Position N 33°56' E 134°60'.

Length 105 m; draft 6.4 m.

Type: Tanker. MMSI: 431001112.

Date/timePositionNaut miles runAvg speedWind from/ knotsBaromVisibWave heightAir tempDewpointWater temp
2014-Oct-29 14:32N 33°56' E 134°60'1414.0
2014-Oct-29 13:33N 34°10' E 134°59'1413.7
2014-Oct-29 12:33N 34°24' E 135°00'1312.7
2014-Oct-29 11:33N 34°37' E 135°02'9 0.4
2014-Oct-28 11:27N 34°34' E 134°51'1112.2
2014-Oct-28 10:33N 34°36' E 135°04'1414.3
2014-Oct-28 09:33N 34°33' E 135°21'3 0.3
2014-Oct-27 23:23N 34°32' E 135°25'4 4.8
2014-Oct-27 22:33N 34°33' E 135°20'2 2.2
2014-Oct-27 21:30N 34°32' E 135°18'0 0.0
2014-Oct-27 20:30N 34°32' E 135°18'0 0.0
2014-Oct-27 19:30N 34°32' E 135°18'0 0.0
2014-Oct-27 18:18N 34°32' E 135°18'0 0.0
2014-Oct-27 17:24N 34°32' E 135°18'0 0.0
2014-Oct-27 16:30N 34°32' E 135°18'7 7.5
2014-Oct-27 15:33N 34°34' E 135°09'1312.4
2014-Oct-27 14:33N 34°35' E 134°54'  
2014-Oct-20 02:06N 33°57' E 132°41'  

Dump ship's entire track history